createdAt,value
2022-09-18T04:04:41.438Z,7.78
2022-09-18T04:08:53.181Z,5.50
2022-09-18T04:13:04.323Z,6.97
2022-09-18T04:17:12.479Z,5.25
2022-09-18T04:21:17.951Z,6.05
2022-09-18T04:25:20.883Z,6.22
2022-09-18T04:29:23.917Z,4.93
2022-09-18T04:33:26.935Z,10.85
2022-09-18T04:37:31.074Z,7.13
2022-09-18T04:41:35.441Z,7.72
2022-09-18T04:45:39.626Z,8.80
2022-09-18T04:49:42.189Z,10.05
2022-09-18T04:53:46.153Z,8.27
2022-09-18T04:57:52.443Z,11.40
2022-09-18T05:01:57.061Z,5.07
2022-09-18T05:05:59.696Z,9.07
2022-09-18T05:10:03.679Z,8.90
2022-09-18T05:14:07.195Z,7.13
2022-09-18T05:18:12.433Z,9.50
2022-09-18T05:22:15.084Z,8.15
2022-09-18T05:26:23.997Z,4.90
2022-09-18T05:30:27.794Z,8.80
2022-09-18T05:34:33.882Z,6.25
2022-09-18T05:38:36.616Z,5.83
2022-09-18T05:42:47.039Z,7.82
2022-09-18T05:46:50.433Z,7.82
2022-09-18T05:50:53.508Z,5.75
2022-09-18T05:54:57.386Z,9.13
2022-09-18T05:59:01.271Z,8.18
2022-09-18T06:03:06.930Z,6.20
2022-09-18T06:07:09.511Z,6.88
2022-09-18T06:11:12.028Z,6.47
2022-09-18T06:15:17.080Z,9.82
2022-09-18T06:19:19.641Z,9.73
2022-09-18T06:23:26.003Z,2.97
2022-09-18T06:27:39.577Z,6.68
2022-09-18T06:31:43.460Z,4.47
2022-09-18T06:35:49.327Z,6.03
2022-09-18T06:39:59.472Z,5.18
2022-09-18T06:44:14.923Z,5.93
2022-09-18T06:48:26.033Z,5.78
2022-09-18T06:52:29.970Z,9.20
2022-09-18T06:56:35.830Z,7.88
2022-09-18T07:00:38.669Z,8.53
2022-09-18T07:04:43.892Z,5.20
2022-09-18T07:08:46.640Z,11.55
2022-09-18T07:12:59.093Z,5.53
2022-09-18T07:17:01.590Z,3.50
2022-09-18T07:21:06.400Z,4.70
2022-09-18T07:25:13.587Z,9.07
2022-09-18T07:29:18.670Z,5.93
2022-09-18T07:33:22.319Z,5.57
2022-09-18T07:37:26.355Z,5.15
2022-09-18T07:41:52.164Z,5.45
2022-09-18T07:45:54.825Z,4.40
2022-09-18T07:49:58.613Z,3.60
2022-09-18T07:54:02.582Z,4.97
2022-09-18T07:58:24.550Z,4.15
2022-09-18T08:02:37.906Z,5.95
2022-09-18T08:06:40.729Z,10.10
2022-09-18T08:10:50.820Z,4.18
2022-09-18T08:15:20.375Z,5.05
2022-09-18T08:19:45.787Z,5.35
2022-09-18T08:24:08.955Z,2.03
2022-09-18T08:28:13.244Z,2.65
2022-09-18T08:32:28.375Z,5.68
2022-09-18T08:36:31.558Z,2.28
2022-09-18T08:41:16.662Z,4.82
2022-09-18T08:45:39.437Z,4.03
2022-09-18T08:49:47.118Z,2.17
2022-09-18T08:53:56.123Z,4.53
2022-09-18T08:58:07.683Z,2.35
2022-09-18T09:02:27.170Z,4.85
2022-09-18T09:06:49.154Z,7.50
2022-09-18T09:11:07.093Z,3.03
2022-09-18T09:15:21.690Z,4.55
2022-09-18T09:19:31.369Z,4.65
2022-09-18T09:23:51.072Z,4.78
2022-09-18T09:28:21.012Z,2.20
2022-09-18T09:32:53.234Z,2.55
2022-09-18T09:37:15.147Z,4.10
2022-09-18T09:41:28.422Z,2.88
2022-09-18T09:45:39.665Z,3.97
2022-09-18T09:49:50.399Z,2.67
2022-09-18T09:53:55.936Z,2.92
2022-09-18T09:58:13.024Z,2.42
2022-09-18T10:02:33.467Z,2.17
2022-09-18T10:06:48.521Z,4.75
2022-09-18T10:10:58.662Z,4.30
2022-09-18T10:15:14.095Z,2.35
2022-09-18T10:19:20.363Z,3.90
2022-09-18T10:23:33.551Z,4.03
2022-09-18T10:27:37.927Z,3.67
2022-09-18T10:31:48.123Z,2.25
2022-09-18T10:35:52.606Z,2.38
2022-09-18T10:39:57.601Z,3.85
2022-09-18T10:44:08.093Z,3.40
2022-09-18T10:48:15.437Z,3.30
2022-09-18T10:52:32.153Z,3.45
2022-09-18T10:56:40.005Z,2.15
2022-09-18T11:00:50.959Z,3.17
2022-09-18T11:04:53.988Z,2.92
2022-09-18T11:09:02.238Z,2.47
2022-09-18T11:13:06.618Z,1.42
2022-09-18T11:17:25.719Z,2.13
2022-09-18T11:21:28.601Z,1.60
2022-09-18T11:25:31.264Z,1.77
2022-09-18T11:29:40.879Z,1.73
2022-09-18T11:33:52.408Z,1.27
2022-09-18T11:38:07.838Z,2.17
2022-09-18T11:42:15.123Z,1.45
2022-09-18T11:46:30.633Z,1.58
2022-09-18T11:50:37.766Z,2.05
2022-09-18T11:54:51.470Z,1.23
2022-09-18T11:58:59.124Z,1.88
2022-09-18T12:03:14.135Z,2.60
2022-09-18T12:07:37.631Z,2.17
2022-09-18T12:11:49.731Z,1.85
2022-09-18T12:15:58.609Z,2.35
2022-09-18T12:20:06.477Z,1.70
2022-09-18T12:24:14.447Z,1.75
2022-09-18T12:28:28.085Z,1.30
2022-09-18T12:32:54.299Z,1.90
2022-09-18T12:37:19.837Z,1.52
2022-09-18T12:41:39.461Z,1.83
2022-09-18T12:45:56.645Z,0.50
2022-09-18T12:50:22.549Z,3.38
2022-09-18T12:54:57.971Z,0.63
2022-09-18T12:59:24.781Z,0.52
2022-09-18T13:03:33.947Z,0.83
2022-09-18T13:07:41.167Z,2.97
2022-09-18T13:11:47.394Z,2.85
2022-09-18T13:15:54.833Z,1.27
2022-09-18T13:20:04.364Z,0.50
2022-09-18T13:24:07.982Z,0.68
2022-09-18T13:28:16.201Z,1.23
2022-09-18T13:32:23.148Z,1.58
2022-09-18T13:36:29.214Z,1.38
2022-09-18T13:40:38.667Z,0.80
2022-09-18T13:44:41.321Z,0.77
2022-09-18T13:48:48.867Z,0.73
2022-09-18T13:52:55.252Z,2.08
2022-09-18T13:57:20.595Z,1.17
2022-09-18T14:01:56.936Z,1.17
2022-09-18T14:06:20.865Z,1.10
2022-09-18T14:10:36.312Z,1.77
2022-09-18T14:14:39.477Z,1.17
2022-09-18T14:18:56.779Z,0.45
2022-09-18T14:23:41.189Z,0.50
2022-09-18T14:27:53.455Z,0.90
2022-09-18T14:31:57.688Z,2.00
2022-09-18T14:36:05.006Z,0.80
2022-09-18T14:40:19.218Z,2.38
2022-09-18T14:44:24.185Z,1.02
2022-09-18T14:48:29.231Z,0.30
2022-09-18T14:52:41.982Z,1.30
2022-09-18T14:56:44.502Z,1.13
2022-09-18T15:00:54.086Z,1.17
2022-09-18T15:04:56.951Z,0.93
2022-09-18T15:08:59.898Z,0.75
2022-09-18T15:13:06.558Z,0.25
2022-09-18T15:17:19.410Z,1.02
2022-09-18T15:21:29.843Z,0.63
2022-09-18T15:25:37.854Z,3.47
2022-09-18T15:29:44.620Z,1.95
2022-09-18T15:33:55.950Z,0.30
2022-09-18T15:38:03.416Z,0.93
2022-09-18T15:42:20.923Z,0.35
2022-09-18T15:46:28.130Z,2.65
2022-09-18T15:50:43.013Z,1.23
2022-09-18T15:55:03.825Z,3.80
2022-09-18T15:59:08.908Z,3.33
2022-09-18T16:03:19.862Z,2.65
2022-09-18T16:07:26.405Z,2.85
2022-09-18T16:11:42.669Z,2.92
2022-09-18T16:15:47.433Z,2.00
2022-09-18T16:19:49.924Z,1.52
2022-09-18T16:23:58.766Z,5.47
2022-09-18T16:28:14.599Z,2.25
2022-09-18T16:32:17.417Z,5.53
2022-09-18T16:36:29.354Z,0.40
2022-09-18T16:40:33.595Z,4.85
2022-09-18T16:44:36.110Z,2.38
2022-09-18T16:48:38.605Z,3.90
2022-09-18T16:52:41.435Z,8.07
2022-09-18T16:56:51.463Z,2.80
2022-09-18T17:00:54.021Z,3.97
2022-09-18T17:04:56.536Z,3.37
2022-09-18T17:08:59.615Z,3.30
2022-09-18T17:13:03.975Z,7.25
2022-09-18T17:17:06.630Z,3.63
2022-09-18T17:21:09.143Z,5.97
2022-09-18T17:25:13.248Z,5.90
2022-09-18T17:29:17.077Z,6.93
2022-09-18T17:33:20.518Z,4.40
2022-09-18T17:41:25.509Z,2.75
2022-09-18T17:45:29.647Z,5.68
2022-09-18T17:49:33.123Z,6.90
2022-09-18T17:53:35.609Z,5.53
2022-09-18T17:57:39.217Z,6.20
2022-09-18T18:01:46.445Z,8.02
2022-09-18T18:05:53.234Z,4.00
2022-09-18T18:09:55.731Z,2.45
2022-09-18T18:13:58.257Z,8.18
2022-09-18T18:18:02.670Z,6.47
2022-09-18T18:22:05.247Z,5.40
2022-09-18T18:26:09.322Z,7.78
2022-09-18T18:30:13.190Z,4.70
2022-09-18T18:34:20.999Z,7.25
2022-09-18T18:38:23.671Z,6.60
2022-09-18T18:42:27.015Z,5.17
2022-09-18T18:46:35.772Z,7.05
2022-09-18T18:50:42.639Z,9.48
2022-09-18T18:54:45.814Z,9.43
2022-09-18T18:58:48.295Z,7.47
2022-09-18T19:02:50.785Z,8.88
2022-09-18T19:06:56.451Z,11.18
2022-09-18T19:11:00.858Z,11.07
2022-09-18T19:15:03.362Z,10.35
2022-09-18T19:19:09.525Z,10.77
2022-09-18T19:23:16.106Z,8.60
2022-09-18T19:27:19.034Z,10.10
2022-09-18T19:31:22.228Z,7.95
2022-09-18T19:35:24.808Z,6.43
2022-09-18T19:39:28.783Z,5.82
2022-09-18T19:43:35.009Z,12.52
2022-09-18T19:47:40.964Z,10.80
2022-09-18T19:51:43.453Z,7.40
2022-09-18T19:55:47.614Z,8.93
2022-09-18T19:59:54.161Z,7.78
2022-09-18T20:03:58.637Z,10.68
2022-09-18T20:08:01.320Z,10.93
2022-09-18T20:12:05.513Z,9.97
2022-09-18T20:16:10.201Z,6.40
2022-09-18T20:20:16.248Z,7.28
2022-09-18T20:24:19.148Z,7.03
2022-09-18T20:28:23.006Z,8.57
2022-09-18T20:32:25.659Z,6.05
2022-09-18T20:36:29.303Z,7.83
2022-09-18T20:40:32.231Z,6.13
2022-09-18T20:44:36.069Z,4.85
2022-09-18T20:48:41.530Z,8.20
2022-09-18T20:52:45.099Z,5.38
